createdAt,value
2022-11-28T00:02:05.256Z,66.39
2022-11-28T00:04:52.334Z,66.03
2022-11-28T00:07:35.559Z,65.71
2022-11-28T00:10:18.776Z,65.38
2022-11-28T00:13:01.735Z,65.38
2022-11-28T00:15:44.766Z,65.28
2022-11-28T00:18:29.852Z,64.78
2022-11-28T00:21:15.111Z,64.68
2022-11-28T00:23:58.746Z,64.64
2022-11-28T00:26:42.876Z,64.75
2022-11-28T00:29:25.826Z,64.29
2022-11-28T00:32:08.923Z,64.25
2022-11-28T00:34:53.345Z,64.26
2022-11-28T00:37:36.323Z,64.11
2022-11-28T00:40:19.555Z,64.01
2022-11-28T00:43:02.502Z,63.88
2022-11-28T00:45:45.600Z,63.90
2022-11-28T00:48:28.945Z,63.99
2022-11-28T00:51:15.126Z,63.84
2022-11-28T00:53:59.925Z,64.25
2022-11-28T00:56:42.924Z,64.28
2022-11-28T00:59:25.851Z,64.24
2022-11-28T01:02:08.928Z,64.50
2022-11-28T01:04:52.119Z,64.38
2022-11-28T01:07:36.501Z,64.59
2022-11-28T01:10:19.858Z,64.57
2022-11-28T01:13:02.949Z,64.37
2022-11-28T01:15:46.002Z,63.61
2022-11-28T01:18:28.938Z,63.89
2022-11-28T01:21:11.956Z,63.59
2022-11-28T01:23:56.423Z,64.11
2022-11-28T01:26:40.246Z,63.31
2022-11-28T01:29:23.155Z,63.60
2022-11-28T01:32:06.222Z,63.41
2022-11-28T01:34:49.222Z,63.47
2022-11-28T01:37:32.352Z,63.43
2022-11-28T01:40:16.840Z,63.33
2022-11-28T01:42:59.615Z,62.81
2022-11-28T01:45:43.012Z,63.40
2022-11-28T01:48:28.805Z,63.38
2022-11-28T01:51:11.981Z,63.19
2022-11-28T01:53:55.791Z,63.34
2022-11-28T01:56:47.070Z,62.91
2022-11-28T01:59:34.969Z,62.91
2022-11-28T02:02:24.567Z,62.86
2022-11-28T02:05:08.380Z,62.92
2022-11-28T02:07:52.118Z,62.65
2022-11-28T02:10:46.188Z,62.48
2022-11-28T02:13:40.931Z,62.49
2022-11-28T02:16:44.609Z,62.22
2022-11-28T02:20:14.973Z,61.29
2022-11-28T02:23:04.917Z,61.36
2022-11-28T02:26:20.445Z,60.98
2022-11-28T02:29:20.960Z,60.00
2022-11-28T02:32:24.927Z,60.75
2022-11-28T02:35:17.731Z,60.91
2022-11-28T02:38:10.290Z,61.00
2022-11-28T02:41:03.207Z,61.19
2022-11-28T02:43:54.425Z,60.85
2022-11-28T02:46:45.371Z,61.05
2022-11-28T02:49:33.557Z,61.15
2022-11-28T02:52:20.278Z,61.24
2022-11-28T02:55:04.220Z,61.35
2022-11-28T02:57:50.667Z,60.84
2022-11-28T03:00:36.130Z,60.36
2022-11-28T03:03:44.484Z,60.30
2022-11-28T03:06:40.381Z,60.39
2022-11-28T03:09:46.464Z,60.40
2022-11-28T03:12:44.338Z,61.02
2022-11-28T03:15:38.971Z,61.22
2022-11-28T03:18:25.854Z,61.04
2022-11-28T03:21:16.885Z,60.90
2022-11-28T03:24:07.545Z,60.50
2022-11-28T03:26:56.677Z,60.64
2022-11-28T03:29:45.179Z,61.07
2022-11-28T03:32:31.534Z,61.07
2022-11-28T03:35:18.247Z,60.88
2022-11-28T03:38:05.496Z,60.58
2022-11-28T03:40:55.379Z,60.17
2022-11-28T03:43:43.040Z,60.20
2022-11-28T03:46:32.801Z,59.73
2022-11-28T03:49:23.211Z,59.77
2022-11-28T03:52:08.530Z,59.41
2022-11-28T03:54:55.498Z,59.42
2022-11-28T03:57:46.872Z,59.52
2022-11-28T04:00:31.046Z,59.49
2022-11-28T04:03:23.492Z,59.69
2022-11-28T04:06:16.099Z,60.30
2022-11-28T04:09:04.692Z,60.26
2022-11-28T04:11:52.882Z,59.82
2022-11-28T04:14:41.812Z,59.85
2022-11-28T04:17:33.816Z,60.21
2022-11-28T04:20:22.301Z,60.66
2022-11-28T04:23:10.545Z,60.44
2022-11-28T04:25:56.570Z,59.72
2022-11-28T04:28:42.409Z,59.78
2022-11-28T04:31:27.705Z,59.68
2022-11-28T04:34:13.806Z,59.58
2022-11-28T04:36:59.765Z,59.07
2022-11-28T04:39:47.254Z,59.56
2022-11-28T04:42:36.603Z,59.28
2022-11-28T04:45:25.521Z,58.83
2022-11-28T04:48:10.160Z,58.79
2022-11-28T04:50:55.449Z,58.21
2022-11-28T04:53:41.453Z,57.71
2022-11-28T04:56:30.190Z,58.39
2022-11-28T04:59:14.896Z,58.65
2022-11-28T05:01:59.897Z,58.38
2022-11-28T05:04:45.274Z,59.12
2022-11-28T05:07:28.431Z,58.98
2022-11-28T05:10:13.737Z,59.03
2022-11-28T05:12:56.706Z,59.47
2022-11-28T05:15:39.644Z,60.10
2022-11-28T05:18:22.624Z,60.24
2022-11-28T05:21:08.982Z,59.95
2022-11-28T05:23:51.940Z,60.15
2022-11-28T05:26:35.501Z,60.18
2022-11-28T05:29:18.541Z,59.87
2022-11-28T05:32:01.571Z,60.16
2022-11-28T05:34:44.689Z,59.83
2022-11-28T05:37:29.111Z,60.00
2022-11-28T05:40:12.726Z,60.18
2022-11-28T05:42:55.687Z,60.30
2022-11-28T05:45:41.289Z,60.09
2022-11-28T05:48:24.938Z,60.29
2022-11-28T05:51:08.187Z,60.50
2022-11-28T05:53:52.506Z,60.78
2022-11-28T05:56:42.143Z,60.94
2022-11-28T05:59:25.706Z,61.14
2022-11-28T06:02:08.781Z,60.55
2022-11-28T06:04:51.782Z,60.37
2022-11-28T06:07:34.934Z,59.84
2022-11-28T06:10:22.517Z,59.95
2022-11-28T06:13:05.522Z,59.80
2022-11-28T06:15:48.464Z,60.07
2022-11-28T06:18:31.412Z,60.04
2022-11-28T06:21:15.808Z,60.12
2022-11-28T06:24:00.063Z,60.12
2022-11-28T06:26:44.395Z,59.91
2022-11-28T06:29:27.405Z,60.21
2022-11-28T06:32:10.420Z,60.38
2022-11-28T06:34:53.525Z,60.69
2022-11-28T06:37:36.547Z,61.05
2022-11-28T06:40:19.615Z,60.87
2022-11-28T06:43:03.888Z,60.97
2022-11-28T06:45:46.884Z,60.71
2022-11-28T06:48:30.016Z,61.13
2022-11-28T06:51:13.777Z,60.61
2022-11-28T06:53:56.914Z,60.52
2022-11-28T06:56:41.568Z,60.55
2022-11-28T06:59:25.708Z,60.28
2022-11-28T07:02:08.777Z,61.00
2022-11-28T07:04:51.826Z,60.91
2022-11-28T07:07:50.052Z,60.69
2022-11-28T07:10:37.087Z,60.49
2022-11-28T07:13:20.102Z,60.23
2022-11-28T07:16:05.263Z,59.83
2022-11-28T07:18:48.693Z,59.62
2022-11-28T07:21:31.839Z,59.92
2022-11-28T07:24:14.942Z,60.29
2022-11-28T07:26:57.902Z,59.99
2022-11-28T07:29:41.085Z,59.56
2022-11-28T07:32:25.753Z,59.26
2022-11-28T07:35:09.707Z,59.07
2022-11-28T07:37:52.654Z,58.87
2022-11-28T07:40:35.623Z,59.22
2022-11-28T07:43:18.557Z,59.02
2022-11-28T07:46:04.123Z,59.34
2022-11-28T07:48:48.961Z,59.84
2022-11-28T07:51:34.400Z,59.92
2022-11-28T07:54:17.531Z,60.29
2022-11-28T07:57:15.667Z,60.25
2022-11-28T07:59:58.710Z,60.62
2022-11-28T08:02:41.628Z,60.58
2022-11-28T08:05:25.988Z,60.27
2022-11-28T08:08:08.995Z,59.84
2022-11-28T08:10:51.997Z,59.17
2022-11-28T08:13:35.212Z,58.56
2022-11-28T08:16:20.440Z,59.20
2022-11-28T08:19:03.732Z,59.13
2022-11-28T08:21:48.900Z,58.72
2022-11-28T08:24:31.809Z,58.83
2022-11-28T08:27:14.788Z,59.40
2022-11-28T08:29:58.041Z,59.45
2022-11-28T08:32:41.226Z,59.54
2022-11-28T08:35:24.561Z,59.77
2022-11-28T08:38:08.889Z,59.63
2022-11-28T08:40:51.806Z,59.35
2022-11-28T08:43:36.853Z,58.78
2022-11-28T08:46:21.819Z,58.11
2022-11-28T08:49:05.216Z,57.89
2022-11-28T08:51:48.194Z,58.07
2022-11-28T08:54:32.587Z,57.95
2022-11-28T08:57:15.585Z,58.32
2022-11-28T08:59:58.500Z,58.21
2022-11-28T09:02:41.498Z,57.96
2022-11-28T09:05:24.461Z,58.15
2022-11-28T09:08:10.421Z,58.01
2022-11-28T09:10:56.269Z,58.20
2022-11-28T09:13:40.018Z,58.24
2022-11-28T09:16:23.088Z,57.88
2022-11-28T09:19:07.087Z,57.94
2022-11-28T09:21:54.553Z,57.70
2022-11-28T09:24:40.651Z,57.47
2022-11-28T09:27:25.071Z,57.38
2022-11-28T09:30:09.644Z,57.53
2022-11-28T09:32:52.829Z,56.74
2022-11-28T09:35:38.592Z,56.10
2022-11-28T09:38:21.558Z,55.31
2022-11-28T09:41:05.502Z,56.04
2022-11-28T09:43:54.993Z,56.77
2022-11-28T09:46:40.052Z,57.35
2022-11-28T09:49:40.805Z,58.03
2022-11-28T09:52:31.541Z,58.46
2022-11-28T09:55:21.163Z,58.03
2022-11-28T09:58:11.426Z,57.93
2022-11-28T10:01:05.593Z,58.16
2022-11-28T10:03:56.101Z,58.37
2022-11-28T10:06:47.163Z,58.04
2022-11-28T10:09:40.727Z,57.92
2022-11-28T10:12:33.225Z,57.73
2022-11-28T10:15:34.991Z,56.82
2022-11-28T10:18:35.359Z,56.74
2022-11-28T10:21:29.292Z,56.70
2022-11-28T10:24:16.491Z,56.48
2022-11-28T10:27:02.724Z,56.45
2022-11-28T10:29:51.301Z,56.65
2022-11-28T10:32:37.696Z,56.29
2022-11-28T10:35:29.868Z,56.59
2022-11-28T10:38:14.073Z,56.73
2022-11-28T10:41:02.013Z,56.54
2022-11-28T10:43:50.626Z,56.38
2022-11-28T10:46:50.128Z,56.87
2022-11-28T10:49:45.082Z,56.99
2022-11-28T10:52:38.418Z,57.20
2022-11-28T10:55:31.907Z,56.69
2022-11-28T10:58:23.727Z,55.96
2022-11-28T11:01:06.932Z,56.35
2022-11-28T11:03:50.838Z,56.60
2022-11-28T11:06:41.741Z,56.48
2022-11-28T11:09:32.148Z,56.47
2022-11-28T11:12:21.487Z,56.84
2022-11-28T11:15:20.751Z,57.21
2022-11-28T11:18:06.735Z,57.55
2022-11-28T11:20:49.706Z,57.88
2022-11-28T11:23:37.937Z,57.95
2022-11-28T11:26:26.517Z,58.08
2022-11-28T11:29:22.287Z,58.18
2022-11-28T11:32:07.737Z,58.40
2022-11-28T11:34:51.617Z,58.75
2022-11-28T11:37:36.721Z,58.41
2022-11-28T11:40:25.670Z,58.43
2022-11-28T11:43:26.754Z,58.41
2022-11-28T11:46:11.701Z,58.58
2022-11-28T11:48:54.950Z,58.32
2022-11-28T11:51:39.552Z,58.16
2022-11-28T11:54:22.717Z,58.68
2022-11-28T11:57:31.343Z,58.68
2022-11-28T12:00:19.484Z,58.81
2022-11-28T12:03:08.050Z,58.83
2022-11-28T12:09:09.360Z,58.69
2022-11-28T12:11:57.575Z,58.95
2022-11-28T12:14:41.645Z,59.39
2022-11-28T12:17:49.600Z,59.29
2022-11-28T12:20:47.020Z,59.25
2022-11-28T12:23:41.562Z,59.37
2022-11-28T12:26:32.189Z,59.45
2022-11-28T12:29:27.793Z,59.64
2022-11-28T12:32:28.255Z,59.92
2022-11-28T12:35:25.801Z,59.98
2022-11-28T12:38:25.333Z,60.18
2022-11-28T12:41:27.731Z,60.05
2022-11-28T12:44:27.390Z,60.26
2022-11-28T12:47:20.744Z,60.49
2022-11-28T12:50:16.462Z,60.63
2022-11-28T12:53:14.961Z,60.53
2022-11-28T12:56:08.539Z,60.88
2022-11-28T12:58:59.636Z,60.96
2022-11-28T13:01:56.070Z,60.89
2022-11-28T13:05:02.590Z,61.36
2022-11-28T13:07:59.711Z,61.11
2022-11-28T13:10:51.480Z,61.11
2022-11-28T13:13:39.843Z,61.23
2022-11-28T13:16:32.600Z,61.28
2022-11-28T13:19:29.663Z,61.56
2022-11-28T13:22:17.067Z,61.77
2022-11-28T13:25:06.347Z,61.61
2022-11-28T13:28:01.397Z,61.89
2022-11-28T13:30:49.618Z,61.98
2022-11-28T13:33:45.122Z,61.77
2022-11-28T13:39:46.445Z,61.99
2022-11-28T13:43:02.183Z,61.43
2022-11-28T13:45:43.798Z,61.66
2022-11-28T13:52:31.843Z,62.40
2022-11-28T13:55:39.410Z,62.18
2022-11-28T13:58:26.005Z,62.11
2022-11-28T14:01:14.448Z,61.94
2022-11-28T14:04:09.896Z,62.09
2022-11-28T14:06:58.958Z,62.05
2022-11-28T14:10:56.622Z,63.00
2022-11-28T14:13:54.468Z,62.75
2022-11-28T14:16:52.826Z,62.63
2022-11-28T14:19:51.418Z,62.84
2022-11-28T14:22:52.196Z,62.88
2022-11-28T14:25:43.088Z,62.84
2022-11-28T14:28:28.744Z,62.56
2022-11-28T14:31:30.608Z,62.67
2022-11-28T14:34:39.067Z,62.93
2022-11-28T14:37:52.975Z,63.27
2022-11-28T14:41:03.236Z,63.74
2022-11-28T14:43:47.652Z,63.78
2022-11-28T14:46:32.719Z,63.62
2022-11-28T14:49:23.202Z,63.61
2022-11-28T14:52:41.473Z,63.86
2022-11-28T14:55:27.262Z,63.75
2022-11-28T14:58:17.530Z,63.46
2022-11-28T15:01:03.263Z,63.79
2022-11-28T15:03:56.471Z,63.91
2022-11-28T15:06:40.562Z,64.41
2022-11-28T15:09:32.184Z,64.93
2022-11-28T15:12:25.277Z,65.04
2022-11-28T15:15:14.325Z,65.07
2022-11-28T15:18:00.788Z,65.32
2022-11-28T15:20:50.878Z,65.71
2022-11-28T15:23:36.092Z,65.71
2022-11-28T15:26:21.685Z,65.83
2022-11-28T15:29:11.703Z,65.93
2022-11-28T15:31:57.998Z,66.13
2022-11-28T15:34:42.470Z,66.46
2022-11-28T15:37:29.652Z,66.44
2022-11-28T15:40:21.220Z,66.74
2022-11-28T15:43:12.752Z,67.08
2022-11-28T15:45:59.622Z,67.10
2022-11-28T15:48:51.356Z,67.75
2022-11-28T15:51:36.373Z,67.80
2022-11-28T15:54:33.749Z,68.18
2022-11-28T15:57:21.471Z,68.25
2022-11-28T16:00:05.420Z,68.28
2022-11-28T16:02:56.426Z,68.53
2022-11-28T16:05:41.245Z,68.60
2022-11-28T16:08:29.564Z,68.67
2022-11-28T16:11:19.868Z,69.09
2022-11-28T16:14:10.606Z,68.98
2022-11-28T16:16:53.997Z,69.05
2022-11-28T16:19:39.075Z,69.14
2022-11-28T16:22:31.598Z,68.95
2022-11-28T16:25:22.518Z,69.27
2022-11-28T16:28:06.128Z,69.45
2022-11-28T16:30:51.195Z,70.38
2022-11-28T16:33:42.245Z,70.80
2022-11-28T16:36:31.977Z,70.29
2022-11-28T16:39:18.548Z,70.61
2022-11-28T16:42:08.364Z,71.61
2022-11-28T16:44:51.370Z,71.87
2022-11-28T16:47:36.483Z,72.53
2022-11-28T16:50:22.330Z,72.97
2022-11-28T16:53:06.028Z,73.29
2022-11-28T16:55:50.711Z,73.32
2022-11-28T16:58:33.464Z,74.65
2022-11-28T17:01:16.487Z,73.49
2022-11-28T17:03:59.540Z,73.23
2022-11-28T17:06:42.775Z,73.30
2022-11-28T17:09:26.203Z,72.76
2022-11-28T17:12:18.064Z,72.86
2022-11-28T17:15:01.011Z,72.88
2022-11-28T17:17:44.577Z,72.24
2022-11-28T17:20:27.750Z,72.36
2022-11-28T17:23:10.700Z,71.97
2022-11-28T17:25:53.674Z,71.66
2022-11-28T17:28:38.074Z,71.55
2022-11-28T17:31:21.802Z,71.62
2022-11-28T17:34:04.798Z,71.87
2022-11-28T17:36:48.045Z,71.50
2022-11-28T17:39:31.024Z,71.61
2022-11-28T17:42:13.941Z,71.46
2022-11-28T17:45:01.151Z,71.56
2022-11-28T17:47:44.210Z,71.46
2022-11-28T17:50:27.248Z,71.54
2022-11-28T17:53:12.311Z,71.61
2022-11-28T17:55:58.931Z,71.51
2022-11-28T17:58:42.051Z,71.20
2022-11-28T18:01:29.627Z,71.40
2022-11-28T18:04:15.478Z,71.60
2022-11-28T18:06:58.594Z,71.62
2022-11-28T18:09:41.765Z,71.80
2022-11-28T18:12:24.956Z,71.58
2022-11-28T18:15:10.190Z,71.49
2022-11-28T18:17:55.159Z,71.31
2022-11-28T18:20:38.782Z,71.42
2022-11-28T18:23:21.842Z,71.38
2022-11-28T18:26:07.726Z,71.53
2022-11-28T18:28:51.012Z,71.75
2022-11-28T18:31:35.552Z,71.70
2022-11-28T18:34:19.888Z,71.55
2022-11-28T18:37:05.206Z,71.65
2022-11-28T18:39:56.642Z,71.60
2022-11-28T18:42:49.833Z,71.81
2022-11-28T18:45:35.245Z,72.10
2022-11-28T18:48:18.793Z,72.19
2022-11-28T18:51:03.259Z,72.19
2022-11-28T18:53:46.751Z,72.28
2022-11-28T18:56:30.338Z,72.20
2022-11-28T18:59:13.649Z,72.29
2022-11-28T19:01:56.917Z,72.09
2022-11-28T19:04:40.171Z,71.92
2022-11-28T19:07:25.685Z,72.09
2022-11-28T19:10:10.318Z,71.89
2022-11-28T19:12:53.514Z,71.87
2022-11-28T19:15:40.278Z,71.74
2022-11-28T19:18:23.276Z,71.67
2022-11-28T19:21:06.934Z,71.84
2022-11-28T19:23:52.560Z,71.80
2022-11-28T19:26:37.892Z,71.55
2022-11-28T19:29:20.843Z,71.69
2022-11-28T19:32:04.457Z,71.70
2022-11-28T19:34:52.201Z,71.95
2022-11-28T19:37:35.289Z,71.94
2022-11-28T19:40:19.817Z,71.72
2022-11-28T19:43:02.965Z,71.63
2022-11-28T19:45:54.243Z,71.77
2022-11-28T19:48:39.052Z,72.01
2022-11-28T19:51:22.066Z,71.57
2022-11-28T19:54:05.461Z,72.00
2022-11-28T19:56:51.838Z,71.94
2022-11-28T19:59:34.801Z,72.02
2022-11-28T20:02:17.938Z,71.81
2022-11-28T20:05:01.144Z,71.93
2022-11-28T20:11:18.401Z,72.20
2022-11-28T20:14:05.206Z,72.36
2022-11-28T20:16:48.636Z,72.28
2022-11-28T20:19:32.171Z,72.42
2022-11-28T20:22:15.203Z,72.59
2022-11-28T20:24:58.832Z,72.19
2022-11-28T20:27:41.777Z,72.41
2022-11-28T20:30:26.217Z,72.32
2022-11-28T20:33:09.452Z,72.59
2022-11-28T20:35:56.996Z,72.72
2022-11-28T20:38:43.111Z,73.00
2022-11-28T20:41:27.924Z,72.84
2022-11-28T20:44:11.300Z,72.78
2022-11-28T20:46:55.633Z,72.57
2022-11-28T20:49:38.651Z,72.62
2022-11-28T20:52:21.567Z,72.20
2022-11-28T20:55:04.730Z,72.28
2022-11-28T20:57:47.673Z,72.39
2022-11-28T21:00:30.641Z,72.31
2022-11-28T21:03:14.942Z,72.25
2022-11-28T21:06:01.048Z,72.09
2022-11-28T21:08:44.721Z,72.04
2022-11-28T21:11:59.722Z,71.93
2022-11-28T21:14:32.663Z,71.85
2022-11-28T21:17:15.598Z,71.83
2022-11-28T21:20:00.110Z,71.74
2022-11-28T21:22:42.896Z,71.83
2022-11-28T21:25:25.821Z,72.04
2022-11-28T21:28:09.918Z,72.26
2022-11-28T21:30:53.048Z,72.31
2022-11-28T21:33:36.103Z,72.12
2022-11-28T21:36:20.980Z,71.79
2022-11-28T21:39:03.930Z,71.93
2022-11-28T21:41:47.472Z,72.00
2022-11-28T21:44:30.837Z,72.17
2022-11-28T21:47:13.782Z,72.25
2022-11-28T21:49:56.757Z,72.23
2022-11-28T21:52:41.092Z,72.38
2022-11-28T21:55:24.081Z,72.14
2022-11-28T21:58:07.248Z,72.03
2022-11-28T22:00:56.468Z,72.23
2022-11-28T22:03:41.601Z,72.21
2022-11-28T22:06:26.267Z,72.39
2022-11-28T22:09:11.833Z,72.36
2022-11-28T22:11:54.808Z,72.12
2022-11-28T22:14:37.810Z,71.95
2022-11-28T22:17:20.811Z,71.93
2022-11-28T22:20:05.354Z,71.87
2022-11-28T22:22:49.650Z,71.79
2022-11-28T22:25:33.984Z,71.73
2022-11-28T22:28:17.020Z,71.71
2022-11-28T22:31:00.291Z,71.51
2022-11-28T22:33:43.581Z,71.47
2022-11-28T22:36:26.527Z,71.25
2022-11-28T22:39:11.506Z,71.36
2022-11-28T22:41:55.834Z,71.24
2022-11-28T22:44:38.896Z,71.52
2022-11-28T22:47:21.848Z,71.61
2022-11-28T22:50:05.701Z,71.50
2022-11-28T22:52:49.424Z,71.30
2022-11-28T22:55:32.701Z,71.29
2022-11-28T22:58:17.102Z,71.41
2022-11-28T23:00:59.893Z,71.67
2022-11-28T23:03:43.336Z,71.54
2022-11-28T23:06:27.833Z,71.48
2022-11-28T23:09:14.407Z,71.51
2022-11-28T23:11:57.446Z,71.62
2022-11-28T23:14:42.201Z,71.84
2022-11-28T23:17:25.453Z,71.56
2022-11-28T23:20:10.108Z,71.09
2022-11-28T23:22:52.897Z,71.07
2022-11-28T23:25:36.814Z,70.88
2022-11-28T23:28:19.804Z,71.24
2022-11-28T23:31:08.945Z,71.48
2022-11-28T23:33:53.116Z,71.12
2022-11-28T23:36:42.145Z,70.87
2022-11-28T23:39:26.491Z,70.74
2022-11-28T23:42:18.325Z,70.73
2022-11-28T23:45:01.347Z,70.45
2022-11-28T23:47:45.678Z,70.44
2022-11-28T23:50:28.600Z,70.53
2022-11-28T23:53:11.640Z,70.41
2022-11-28T23:55:54.554Z,70.32
2022-11-28T23:58:38.208Z,70.22
